Time;durP1;ratioP1;P1;durP2;ratioP2;P2;SDS_P1;SDS_P2;PMS_P1;PMS_P2;Temp;Humidity;BMP_temperature;BMP_pressure;BME280_temperature;BME280_humidity;BME280_pressure;Samples;Min_cycle;Max_cycle;Signal;HPM_P1;HPM_P2
2021/05/07 04:15:21;;;;;;;2.30;1.63;;;;;;;6.90;91.91;98124.31;5909989;23;20138;-68
2021/05/07 04:17:47;;;;;;;2.28;1.80;;;;;;;6.77;92.62;98127.97;4916363;29;20621;-68
2021/05/07 04:20:13;;;;;;;2.28;1.98;;;;;;;6.91;92.42;98128.63;4915478;29;20107;-68
2021/05/07 04:22:38;;;;;;;2.45;2.25;;;;;;;6.78;92.03;98129.66;4916510;29;20489;-68
2021/05/07 04:25:09;;;;;;;3.13;2.30;;;;;;;6.74;93.22;98138.28;4916668;29;20028;-68
2021/05/07 04:27:34;;;;;;;2.70;2.50;;;;;;;6.78;92.84;98149.41;4897918;29;20015;-68
2021/05/07 04:30:00;;;;;;;4.47;2.28;;;;;;;6.60;93.56;98145.34;4897276;29;20032;-68
2021/05/07 04:32:26;;;;;;;6.80;2.40;;;;;;;6.64;93.97;98147.00;4897457;29;20142;-68
2021/05/07 04:34:51;;;;;;;2.58;2.38;;;;;;;6.60;93.98;98142.75;4897314;29;20107;-68
2021/05/07 04:37:16;;;;;;;2.80;2.60;;;;;;;6.61;95.59;98152.19;4897225;29;20016;-68
2021/05/07 04:39:41;;;;;;;3.47;3.17;;;;;;;6.30;95.64;98151.69;4896054;29;20028;-68
2021/05/07 04:42:07;;;;;;;3.42;3.10;;;;;;;6.37;94.57;98159.31;4897414;29;20470;-71
2021/05/07 04:44:32;;;;;;;4.22;3.78;;;;;;;6.12;94.15;98165.59;4897317;29;20043;-71
2021/05/07 04:46:59;;;;;;;4.82;4.32;;;;;;;6.15;94.29;98168.16;4896922;29;20031;-71
2021/05/07 04:49:28;;;;;;;4.65;4.15;;;;;;;6.28;94.11;98172.28;4897243;29;20044;-71
2021/05/07 04:51:54;;;;;;;5.38;4.75;;;;;;;6.21;94.26;98178.38;4897115;29;20048;-71
2021/05/07 04:54:20;;;;;;;5.68;4.97;;;;;;;6.17;95.03;98181.81;4897141;29;20032;-71
2021/05/07 04:56:45;;;;;;;5.50;4.90;;;;;;;6.23;94.51;98186.91;4897039;29;20497;-71
2021/05/07 04:59:11;;;;;;;5.75;5.07;;;;;;;6.35;94.15;98197.09;4897117;29;20116;-71
2021/05/07 05:01:36;;;;;;;5.53;5.00;;;;;;;6.17;94.31;98192.13;4895911;29;20119;-71
2021/05/07 05:04:01;;;;;;;8.18;5.30;;;;;;;6.27;94.16;98192.88;4897082;29;20032;-72
2021/05/07 05:06:27;;;;;;;6.10;5.07;;;;;;;6.23;92.91;98197.19;4896641;29;20032;-72
2021/05/07 05:08:52;;;;;;;5.90;5.30;;;;;;;5.97;94.35;98210.31;4897026;29;20107;-72
2021/05/07 05:11:17;;;;;;;6.47;5.40;;;;;;;6.06;94.28;98209.38;4896985;29;20028;-73
2021/05/07 05:13:43;;;;;;;6.28;4.82;;;;;;;6.10;93.88;98208.50;4896988;29;20071;-72
2021/05/07 05:16:08;;;;;;;5.85;5.20;;;;;;;6.17;93.54;98212.69;4896585;29;20131;-72
2021/05/07 05:18:36;;;;;;;5.95;5.40;;;;;;;6.26;93.77;98212.59;4896991;29;20036;-72
2021/05/07 05:21:03;;;;;;;7.00;5.80;;;;;;;6.27;94.17;98214.31;4896872;29;20032;-72
2021/05/07 05:23:29;;;;;;;8.13;6.90;;;;;;;6.38;93.50;98217.63;4897111;29;20107;-72
2021/05/07 05:25:56;;;;;;;5.60;5.00;;;;;;;6.44;93.62;98221.88;4896625;29;20476;-72
2021/05/07 05:28:22;;;;;;;11.00;7.85;;;;;;;6.33;93.66;98224.53;4896796;29;20024;-72
2021/05/07 05:30:48;;;;;;;8.25;5.00;;;;;;;6.37;92.95;98231.34;4898430;29;20119;-72
2021/05/07 05:33:14;;;;;;;7.63;5.97;;;;;;;6.28;93.28;98235.72;4900707;29;20069;-72
2021/05/07 05:35:39;;;;;;;6.00;4.78;;;;;;;6.40;92.82;98236.47;4900505;29;20044;-72
2021/05/07 05:38:05;;;;;;;7.70;5.32;;;;;;;6.51;93.63;98240.66;4900680;29;20123;-72
2021/05/07 05:40:31;;;;;;;4.10;3.70;;;;;;;6.48;92.44;98238.97;4900505;29;20113;-72
2021/05/07 05:42:57;;;;;;;6.63;3.65;;;;;;;6.56;92.38;98238.88;4900565;29;20040;-72
2021/05/07 05:45:24;;;;;;;3.90;3.47;;;;;;;6.59;92.51;98247.44;4900336;29;20029;-72
2021/05/07 05:48:03;;;;;;;5.05;3.53;;;;;;;6.63;91.27;98250.84;4900192;29;20031;-71
2021/05/07 05:50:28;;;;;;;4.45;3.45;;;;;;;6.60;92.10;98263.72;4900340;29;20044;-72
2021/05/07 05:52:54;;;;;;;7.10;4.22;;;;;;;6.58;92.13;98265.47;4900389;29;20029;-72
2021/05/07 05:55:20;;;;;;;5.95;4.35;;;;;;;6.56;93.08;98262.06;4900294;29;20029;-73
2021/05/07 05:57:45;;;;;;;7.75;3.90;;;;;;;6.49;92.29;98263.00;4900116;29;20021;-73
2021/05/07 06:00:11;;;;;;;5.68;4.30;;;;;;;6.53;92.15;98259.53;4900165;29;20389;-73
2021/05/07 06:02:37;;;;;;;5.75;4.25;;;;;;;6.46;91.78;98263.00;4893114;29;20032;-73
2021/05/07 06:05:02;;;;;;;5.55;4.20;;;;;;;6.59;92.91;98267.19;4885687;29;20092;-73
2021/05/07 06:07:28;;;;;;;8.10;4.03;;;;;;;6.53;92.54;98268.09;4893150;29;20040;-73
2021/05/07 06:09:53;;;;;;;11.40;3.95;;;;;;;6.62;92.87;98277.41;4881338;29;20546;-73
2021/05/07 06:12:18;;;;;;;7.32;4.45;;;;;;;6.71;91.44;98277.31;4881103;29;20501;-73
2021/05/07 06:14:44;;;;;;;6.15;4.38;;;;;;;6.74;92.75;98277.31;4881002;29;20029;-73
2021/05/07 06:17:09;;;;;;;9.82;3.88;;;;;;;6.72;90.58;98283.31;4879608;29;20036;-72
2021/05/07 06:19:34;;;;;;;6.90;3.70;;;;;;;6.68;90.17;98285.09;4881084;29;20562;-73
2021/05/07 06:22:00;;;;;;;51.95;33.38;;;;;;;6.68;90.95;98293.66;4880963;29;20081;-73
2021/05/07 06:24:25;;;;;;;4.93;4.38;;;;;;;6.72;89.69;98289.34;4880019;29;20092;-73
2021/05/07 06:26:51;;;;;;;5.60;4.30;;;;;;;6.76;89.83;98297.88;4897238;29;20033;-73
2021/05/07 06:29:16;;;;;;;7.53;4.68;;;;;;;6.70;89.09;98301.38;4898806;29;20028;-73
2021/05/07 06:31:42;;;;;;;5.88;4.38;;;;;;;6.63;90.88;98304.88;4899561;29;20548;-73
2021/05/07 06:34:07;;;;;;;6.72;4.22;;;;;;;6.74;90.12;98303.06;4886969;29;20029;-73
2021/05/07 06:36:32;;;;;;;7.68;4.72;;;;;;;6.65;89.55;98303.13;4880633;29;20039;-73
2021/05/07 06:38:57;;;;;;;9.45;4.35;;;;;;;6.67;89.06;98298.81;4878933;29;20029;-73
2021/05/07 06:41:23;;;;;;;4.78;4.30;;;;;;;6.57;90.49;98308.34;4879491;29;20037;-73
2021/05/07 06:43:48;;;;;;;7.55;5.18;;;;;;;6.59;90.58;98308.34;4880109;29;20025;-73
2021/05/07 06:46:14;;;;;;;7.47;4.15;;;;;;;6.85;89.78;98306.34;4880223;29;20033;-73
2021/05/07 06:48:42;;;;;;;6.30;5.18;;;;;;;6.63;90.71;98321.19;4880538;29;20098;-73
2021/05/07 06:51:07;;;;;;;6.53;4.75;;;;;;;6.68;90.76;98324.56;4883254;29;20490;-73
2021/05/07 06:53:33;;;;;;;7.95;5.18;;;;;;;6.61;89.47;98332.34;4899030;29;20033;-73
2021/05/07 06:55:58;;;;;;;9.25;5.13;;;;;;;6.55;89.99;98332.41;4898943;29;20048;-73
2021/05/07 06:58:23;;;;;;;8.80;5.00;;;;;;;6.52;90.86;98332.44;4898980;29;20028;-73
2021/05/07 07:00:49;;;;;;;7.05;5.32;;;;;;;6.55;90.23;98332.41;4898832;29;20092;-73
2021/05/07 07:03:14;;;;;;;8.30;5.13;;;;;;;6.64;90.62;98335.75;4897892;29;20549;-73
2021/05/07 07:05:39;;;;;;;6.88;5.60;;;;;;;6.67;90.05;98335.75;4890543;29;20027;-73
2021/05/07 07:08:05;;;;;;;6.90;5.47;;;;;;;6.78;89.11;98334.78;4879873;29;20364;-73
2021/05/07 07:10:30;;;;;;;7.60;5.80;;;;;;;6.81;88.29;98335.56;4880124;29;20031;-73
2021/05/07 07:12:55;;;;;;;5.97;4.85;;;;;;;6.78;88.21;98340.78;4879957;29;20456;-73
2021/05/07 07:15:21;;;;;;;5.97;5.38;;;;;;;6.70;88.87;98342.56;4878854;29;20053;-73
2021/05/07 07:17:46;;;;;;;7.03;5.05;;;;;;;6.85;89.26;98342.41;4879766;29;20025;-73
2021/05/07 07:20:12;;;;;;;5.97;5.38;;;;;;;7.07;87.92;98347.34;4879393;29;20104;-73
2021/05/07 07:22:37;;;;;;;6.53;5.50;;;;;;;7.09;88.11;98355.91;4895111;29;20056;-71
2021/05/07 07:25:04;;;;;;;9.25;5.00;;;;;;;7.18;87.65;98356.66;4880004;29;20108;-69
2021/05/07 07:27:29;;;;;;;5.75;5.10;;;;;;;7.12;87.54;98361.88;4878665;29;20036;-69
2021/05/07 07:29:55;;;;;;;6.40;5.70;;;;;;;7.27;87.58;98366.00;4887325;29;20394;-69
2021/05/07 07:32:20;;;;;;;10.25;5.90;;;;;;;7.20;87.00;98369.50;4884814;29;20076;-69
2021/05/07 07:34:46;;;;;;;11.68;6.70;;;;;;;7.08;87.16;98375.66;4894607;29;20028;-70
2021/05/07 07:37:11;;;;;;;7.47;5.95;;;;;;;7.16;87.19;98383.31;4897838;29;20479;-69
2021/05/07 07:39:38;;;;;;;7.75;6.13;;;;;;;7.33;85.76;98381.38;4897585;29;20036;-72
2021/05/07 07:42:04;;;;;;;8.63;6.32;;;;;;;7.71;87.10;98382.66;4898252;29;20032;-73
2021/05/07 07:44:29;;;;;;;7.05;6.07;;;;;;;7.87;83.33;98378.97;4898154;29;20032;-69
2021/05/07 07:46:55;;;;;;;7.45;6.75;;;;;;;7.75;84.47;98379.16;4897774;29;20458;-69
2021/05/07 07:49:20;;;;;;;7.18;6.38;;;;;;;8.04;82.57;98385.66;4897480;29;20032;-69
2021/05/07 07:51:46;;;;;;;8.68;6.43;;;;;;;8.18;81.36;98384.59;4897649;29;20528;-69
2021/05/07 07:54:12;;;;;;;6.47;5.47;;;;;;;8.40;79.71;98386.84;4896644;29;20079;-69
2021/05/07 07:56:39;;;;;;;8.48;4.95;;;;;;;8.48;79.45;98388.44;4897625;29;20031;-69
2021/05/07 07:59:05;;;;;;;10.77;7.55;;;;;;;8.44;81.57;98397.13;4897816;29;20031;-69
2021/05/07 08:01:30;;;;;;;7.22;5.40;;;;;;;8.43;79.62;98395.41;4889704;29;20030;-69
2021/05/07 08:03:55;;;;;;;13.32;8.43;;;;;;;8.38;78.52;98397.22;4879183;29;20060;-69
2021/05/07 08:06:21;;;;;;;9.18;6.03;;;;;;;8.54;78.98;98407.31;4878704;29;20177;-70
2021/05/07 08:08:48;;;;;;;8.02;5.13;;;;;;;8.61;78.27;98408.94;4878956;29;20021;-69
2021/05/07 08:11:13;;;;;;;8.60;5.63;;;;;;;8.25;78.64;98421.47;4878865;29;20119;-69
2021/05/07 08:13:38;;;;;;;6.15;5.22;;;;;;;8.24;79.11;98414.59;4877897;29;20544;-69
2021/05/07 08:16:04;;;;;;;8.65;5.75;;;;;;;8.29;79.76;98423.13;4878476;29;20511;-69
2021/05/07 08:18:29;;;;;;;7.20;6.07;;;;;;;8.35;79.76;98433.34;4878790;29;20546;-69
2021/05/07 08:20:55;;;;;;;8.35;5.43;;;;;;;8.34;77.80;98436.81;4878827;29;20112;-70
2021/05/07 08:23:20;;;;;;;6.50;5.88;;;;;;;8.58;78.25;98437.38;4878794;29;20055;-71
2021/05/07 08:25:45;;;;;;;8.00;5.47;;;;;;;8.68;75.79;98442.34;4876561;29;20025;-70
2021/05/07 08:28:11;;;;;;;6.85;5.30;;;;;;;8.81;75.68;98442.16;4878418;29;20096;-70
2021/05/07 08:30:36;;;;;;;6.07;4.78;;;;;;;9.69;72.39;98444.88;4877605;29;20116;-70
2021/05/07 08:33:02;;;;;;;6.88;4.68;;;;;;;9.68;72.94;98444.03;4877403;29;20078;-70
2021/05/07 08:35:27;;;;;;;8.15;6.72;;;;;;;10.03;70.50;98445.88;4878262;29;20040;-68
2021/05/07 08:37:52;;;;;;;14.07;6.70;;;;;;;9.66;73.30;98460.44;4885325;29;20103;-69
2021/05/07 08:40:18;;;;;;;6.22;5.22;;;;;;;11.00;66.10;98457.50;4884573;29;20123;-69
2021/05/07 08:42:44;;;;;;;6.18;5.03;;;;;;;11.62;64.89;98455.91;4878580;29;20029;-69
2021/05/07 08:45:11;;;;;;;9.18;5.22;;;;;;;12.84;60.04;98460.06;4878511;29;20096;-72
2021/05/07 08:47:38;;;;;;;9.80;4.63;;;;;;;13.86;57.40;98455.72;4877648;29;20037;-72
2021/05/07 08:50:05;;;;;;;5.65;4.13;;;;;;;14.94;51.86;98462.88;4879101;29;20040;-72
2021/05/07 08:52:31;;;;;;;9.25;5.80;;;;;;;13.48;55.04;98472.72;4889708;29;20036;-72
2021/05/07 08:54:58;;;;;;;9.02;5.30;;;;;;;13.25;57.56;98478.72;4889567;29;20028;-72
2021/05/07 08:57:24;;;;;;;8.00;6.07;;;;;;;11.40;62.53;98495.38;4888259;29;20029;-73
2021/05/07 08:59:50;;;;;;;7.97;4.65;;;;;;;9.10;69.64;98506.28;4886672;29;20449;-73
2021/05/07 09:02:30;;;;;;;5.85;5.13;;;;;;;8.61;74.30;98507.06;4888406;29;20458;-72
2021/05/07 09:04:57;;;;;;;11.65;8.15;;;;;;;10.96;66.64;98501.69;4889904;29;20028;-71
2021/05/07 09:07:29;;;;;;;6.35;5.07;;;;;;;13.84;55.87;98488.81;4888865;29;20124;-69
2021/05/07 09:10:01;;;;;;;8.57;5.43;;;;;;;15.07;49.45;98496.25;4888463;29;20498;-69
2021/05/07 09:12:33;;;;;;;4.70;4.13;;;;;;;17.38;45.70;98488.41;4887386;29;20040;-70
2021/05/07 09:15:00;;;;;;;5.72;3.78;;;;;;;18.20;44.79;98488.56;4889759;29;20034;-71
2021/05/07 09:17:27;;;;;;;6.70;3.75;;;;;;;17.35;44.46;98498.19;4890183;29;20114;-71
2021/05/07 09:20:11;;;;;;;6.10;3.67;;;;;;;16.01;46.87;98501.00;4889784;29;20032;-71
2021/05/07 09:22:38;;;;;;;3.88;3.35;;;;;;;17.56;43.95;98496.28;4889536;29;20104;-71
2021/05/07 09:25:13;;;;;;;3.53;3.20;;;;;;;15.51;46.63;98517.06;4889559;29;20025;-71
2021/05/07 09:27:40;;;;;;;5.40;3.30;;;;;;;13.37;51.44;98525.13;4889389;29;20128;-71
2021/05/07 09:30:16;;;;;;;4.47;3.17;;;;;;;12.67;52.66;98532.53;4889035;29;20035;-75
2021/05/07 09:32:49;;;;;;;5.20;3.50;;;;;;;12.64;51.97;98532.66;4889085;29;20047;-71
2021/05/07 09:35:14;;;;;;;3.50;2.90;;;;;;;12.42;50.64;98543.66;4886828;29;20088;-72
2021/05/07 09:37:41;;;;;;;4.00;3.38;;;;;;;13.42;46.23;98538.84;4889452;29;20068;-72
2021/05/07 09:40:18;;;;;;;4.40;3.65;;;;;;;11.26;54.85;98551.94;4890591;29;20040;-72
2021/05/07 09:42:45;;;;;;;5.90;3.40;;;;;;;10.44;55.40;98560.72;4889051;29;20451;-72
2021/05/07 09:45:19;;;;;;;7.38;4.25;;;;;;;9.76;58.43;98570.63;4887721;29;20036;-72
2021/05/07 09:47:47;;;;;;;9.73;5.18;;;;;;;9.89;58.49;98560.91;4902522;29;20112;-72
2021/05/07 09:50:12;;;;;;;5.75;3.72;;;;;;;12.12;53.16;98560.13;4888195;29;20038;-72
2021/05/07 09:52:38;;;;;;;5.43;3.63;;;;;;;14.23;49.59;98553.41;4904975;29;20036;-72
2021/05/07 09:55:03;;;;;;;4.82;3.92;;;;;;;12.70;52.15;98548.03;4889872;29;20635;-72
2021/05/07 09:57:30;;;;;;;6.18;3.97;;;;;;;13.32;50.83;98553.06;4889563;29;20056;-71
2021/05/07 09:59:56;;;;;;;9.48;4.25;;;;;;;12.37;53.36;98560.28;4889540;29;20039;-71
2021/05/07 10:02:22;;;;;;;6.97;4.00;;;;;;;10.89;56.55;98568.38;4889904;29;20036;-71
2021/05/07 10:04:48;;;;;;;5.13;4.03;;;;;;;13.67;51.06;98558.84;4888413;29;20035;-72
2021/05/07 10:07:13;;;;;;;5.32;3.10;;;;;;;15.41;46.74;98557.53;4889970;29;20397;-72
2021/05/07 10:09:39;;;;;;;4.00;3.60;;;;;;;13.28;48.68;98564.47;4890077;29;20036;-72
2021/05/07 10:12:07;;;;;;;7.05;3.80;;;;;;;12.16;51.51;98582.53;4889922;29;20040;-72
2021/05/07 10:14:41;;;;;;;6.35;2.97;;;;;;;11.26;52.38;98588.25;4890107;29;20497;-72
2021/05/07 10:17:11;;;;;;;4.07;3.20;;;;;;;11.33;54.23;98592.41;4891680;29;20032;-72
2021/05/07 10:19:40;;;;;;;;;;;;;;;13.70;46.85;98579.56;4894326;29;20028;-72
2021/05/07 10:22:07;;;;;;;3.03;2.63;;;;;;;15.59;42.08;98568.97;4891809;29;19919;-73
2021/05/07 10:24:36;;;;;;;3.22;2.65;;;;;;;17.39;37.24;98566.06;4893086;29;20097;-72
2021/05/07 10:27:22;;;;;;;3.17;2.40;;;;;;;15.10;43.65;98594.47;4891884;29;21064;-72
2021/05/07 10:29:58;;;;;;;4.78;2.55;;;;;;;14.49;41.21;98595.03;4916712;23;20355;-69
2021/05/07 10:32:35;;;;;;;2.97;2.67;;;;;;;12.21;44.36;98610.06;4909386;29;20063;-69
2021/05/07 10:35:01;;;;;;;4.55;2.83;;;;;;;11.53;47.92;98610.94;4909357;29;20028;-69
2021/05/07 10:37:44;;;;;;;5.35;2.85;;;;;;;11.49;48.42;98606.72;4908356;29;20028;-69
2021/05/07 10:40:12;;;;;;;2.53;2.33;;;;;;;13.44;42.07;98607.31;4903261;29;20367;-69
2021/05/07 10:42:37;;;;;;;3.90;2.80;;;;;;;13.42;42.90;98601.31;4903778;29;20032;-69
2021/05/07 10:45:03;;;;;;;3.00;2.35;;;;;;;12.75;44.99;98604.19;4907926;29;20032;-69
2021/05/07 10:47:36;;;;;;;8.93;2.80;;;;;;;14.61;42.46;98591.97;4903658;29;20390;-69
2021/05/07 10:50:15;;;;;;;2.63;2.42;;;;;;;14.23;39.16;98602.91;4904445;29;20034;-69
2021/05/07 10:52:40;;;;;;;2.40;1.95;;;;;;;12.37;43.32;98622.63;4904046;29;20024;-69
2021/05/07 10:55:08;;;;;;;5.50;2.83;;;;;;;11.57;45.19;98625.53;4906824;29;20032;-69
2021/05/07 10:57:36;;;;;;;3.47;2.58;;;;;;;10.72;46.62;98636.09;4906601;29;20445;-69
2021/05/07 11:00:08;;;;;;;4.72;3.17;;;;;;;10.54;47.78;98639.94;4905676;29;20064;-69
2021/05/07 11:02:55;;;;;;;5.25;2.58;;;;;;;11.02;48.93;98645.00;4904889;29;20035;-69
2021/05/07 11:05:45;;;;;;;4.10;2.60;;;;;;;10.80;46.47;98651.50;4903319;29;20047;-69
2021/05/07 11:08:11;;;;;;;4.05;2.28;;;;;;;11.16;46.38;98649.00;4901969;29;20398;-69
2021/05/07 11:10:36;;;;;;;2.85;2.50;;;;;;;11.80;45.33;98647.50;4904504;29;20032;-69
2021/05/07 11:13:02;;;;;;;4.47;2.15;;;;;;;14.01;39.91;98640.13;4903233;29;20115;-69
2021/05/07 11:15:28;;;;;;;3.75;2.30;;;;;;;14.54;39.21;98637.41;4906430;29;20397;-69
2021/05/07 11:18:02;;;;;;;3.35;2.30;;;;;;;14.07;39.62;98642.53;4905751;29;20111;-69
2021/05/07 11:20:47;;;;;;;4.78;2.95;;;;;;;14.85;39.41;98651.97;4905460;29;20028;-70
2021/05/07 11:23:13;;;;;;;6.30;3.05;;;;;;;16.64;35.71;98648.09;4904204;29;20032;-69
2021/05/07 11:25:40;;;;;;;4.53;2.50;;;;;;;16.87;34.65;98654.06;4906220;29;20041;-69
2021/05/07 11:28:21;;;;;;;5.20;2.25;;;;;;;15.46;35.61;98652.19;4907691;29;20032;-69
2021/05/07 11:30:49;;;;;;;5.28;2.42;;;;;;;15.85;35.63;98646.28;4902884;29;20036;-69
2021/05/07 11:33:15;;;;;;;4.15;2.38;;;;;;;16.83;35.19;98648.16;4908721;29;20032;-70
2021/05/07 11:35:41;;;;;;;4.75;1.85;;;;;;;17.47;34.80;98655.59;4906299;29;20151;-69
2021/05/07 11:38:06;;;;;;;4.93;2.20;;;;;;;17.01;32.91;98651.69;4907214;29;20396;-74
2021/05/07 11:40:40;;;;;;;3.97;2.72;;;;;;;17.62;32.98;98648.78;4904307;29;20031;-74
2021/05/07 11:43:11;;;;;;;3.42;2.45;;;;;;;17.88;31.72;98644.91;4902866;29;20040;-74
2021/05/07 11:45:36;;;;;;;3.33;2.22;;;;;;;18.28;32.16;98652.56;4905052;29;20073;-74
2021/05/07 11:48:10;;;;;;;4.45;2.28;;;;;;;17.20;31.71;98664.75;4905812;29;20151;-73
2021/05/07 11:50:36;;;;;;;5.40;2.45;;;;;;;15.60;33.73;98662.94;4903546;29;20083;-74
2021/05/07 11:53:02;;;;;;;2.97;2.42;;;;;;;14.08;37.61;98670.28;4906390;29;20059;-73
2021/05/07 11:55:31;;;;;;;3.35;2.40;;;;;;;13.68;38.32;98664.69;4907643;29;20110;-73
2021/05/07 11:57:57;;;;;;;5.72;2.47;;;;;;;13.75;37.84;98671.41;4905354;29;20620;-73
2021/05/07 12:00:22;;;;;;;2.67;1.85;;;;;;;13.92;36.95;98679.50;4906863;29;20032;-74
2021/05/07 12:02:57;;;;;;;5.18;2.53;;;;;;;13.89;38.11;98680.47;4903389;29;20056;-74
2021/05/07 12:05:36;;;;;;;4.10;2.45;;;;;;;13.29;38.76;98688.44;4903528;29;20039;-74
2021/05/07 12:08:02;;;;;;;2.40;2.20;;;;;;;13.15;39.41;98691.47;4907460;29;20114;-74
2021/05/07 12:10:29;;;;;;;2.25;2.00;;;;;;;13.05;38.81;98696.09;4901007;29;20065;-74
2021/05/07 12:12:57;;;;;;;2.75;2.08;;;;;;;13.30;39.08;98692.78;4903209;29;20036;-69
2021/05/07 12:15:30;;;;;;;7.28;3.45;;;;;;;13.10;40.05;98690.72;4901875;29;20501;-69
2021/05/07 12:17:56;;;;;;;4.57;2.22;;;;;;;12.85;38.70;98703.59;4907036;29;20229;-69
2021/05/07 12:20:24;;;;;;;3.90;2.13;;;;;;;12.37;39.27;98706.63;4904123;29;20024;-69
2021/05/07 12:22:52;;;;;;;2.75;2.20;;;;;;;12.28;41.73;98706.88;4901863;29;20043;-69
2021/05/07 12:25:20;;;;;;;3.88;2.78;;;;;;;12.36;40.90;98699.72;4903686;29;20509;-74
2021/05/07 12:27:48;;;;;;;5.28;3.00;;;;;;;12.27;41.33;98711.22;4901115;29;20071;-73
2021/05/07 12:30:18;;;;;;;3.08;2.10;;;;;;;12.70;41.82;98706.63;4906340;29;20036;-73
2021/05/07 12:32:54;;;;;;;;;;;;;;;12.51;40.23;98703.66;4907004;29;20036;-73
2021/05/07 12:35:20;;;;;;;4.28;2.20;;;;;;;12.43;38.64;98710.84;4907630;29;19950;-73
2021/05/07 12:37:46;;;;;;;3.38;2.15;;;;;;;12.15;39.53;98721.09;4907365;29;20513;-73
2021/05/07 12:40:11;;;;;;;5.32;2.40;;;;;;;12.15;42.13;98726.28;4905739;29;20032;-73
2021/05/07 12:42:37;;;;;;;2.90;1.73;;;;;;;12.07;41.60;98735.09;4901376;29;20405;-73
2021/05/07 12:45:02;;;;;;;2.55;2.22;;;;;;;12.09;42.19;98748.91;4907580;29;20485;-73
2021/05/07 12:47:28;;;;;;;20.95;12.95;;;;;;;11.67;41.96;98747.31;4904487;29;20055;-74
2021/05/07 12:49:53;;;;;;;4.55;2.80;;;;;;;11.33;43.77;98777.44;4906181;29;20490;-74
2021/05/07 12:52:18;;;;;;;3.25;2.58;;;;;;;10.40;46.67;98775.78;4901444;29;20490;-73
2021/05/07 12:54:44;;;;;;;4.38;2.50;;;;;;;10.34;47.88;98786.22;4901752;29;20032;-73
2021/05/07 12:57:10;;;;;;;3.92;3.17;;;;;;;10.22;50.39;98797.63;4905936;29;20024;-74
2021/05/07 12:59:35;;;;;;;3.50;2.80;;;;;;;9.87;50.35;98806.81;4904885;29;20127;-73
2021/05/07 13:02:00;;;;;;;4.95;2.88;;;;;;;9.77;50.67;98803.50;4902200;29;20088;-73
2021/05/07 13:04:26;;;;;;;11.40;3.30;;;;;;;9.77;50.63;98816.44;4904561;29;20028;-73
2021/05/07 13:06:51;;;;;;;5.28;3.08;;;;;;;10.22;49.43;98795.03;4903304;29;20036;-72
2021/05/07 13:09:16;;;;;;;3.25;2.67;;;;;;;11.10;47.99;98799.53;4903393;29;20518;-73
2021/05/07 13:11:42;;;;;;;8.98;2.28;;;;;;;12.39;47.34;98798.41;4902443;29;20036;-73
2021/05/07 13:14:10;;;;;;;4.03;2.80;;;;;;;12.12;46.39;98799.06;4904919;29;20097;-70
2021/05/07 13:16:36;;;;;;;5.10;2.70;;;;;;;12.15;47.40;98786.88;4902935;29;20040;-73
2021/05/07 13:19:01;;;;;;;3.25;2.75;;;;;;;12.44;44.97;98791.34;4906273;29;20032;-73
2021/05/07 13:21:26;;;;;;;7.35;2.63;;;;;;;12.31;44.38;98797.72;4902555;29;20088;-74
2021/05/07 13:23:52;;;;;;;2.70;2.50;;;;;;;12.32;45.97;98796.84;4905286;29;20053;-73
2021/05/07 13:26:17;;;;;;;7.05;2.65;;;;;;;11.74;44.48;98788.63;4902235;29;20028;-73
2021/05/07 13:28:42;;;;;;;2.63;2.42;;;;;;;12.01;46.26;98800.19;4903916;29;20032;-72
2021/05/07 13:31:08;;;;;;;4.32;2.75;;;;;;;12.50;44.56;98801.56;4903588;29;20513;-73
2021/05/07 13:33:34;;;;;;;7.00;2.88;;;;;;;12.49;44.09;98797.28;4905673;29;20040;-72
2021/05/07 13:35:59;;;;;;;7.15;2.97;;;;;;;12.04;43.68;98815.69;4906942;29;20028;-72
2021/05/07 13:38:25;;;;;;;3.72;2.42;;;;;;;11.90;44.98;98822.09;4905667;29;20032;-74
2021/05/07 13:40:52;;;;;;;6.13;2.70;;;;;;;11.51;46.35;98822.91;4903829;29;20944;-75
2021/05/07 13:43:19;;;;;;;4.90;2.70;;;;;;;11.18;47.05;98833.97;4907021;29;20047;-74
2021/05/07 13:45:44;;;;;;;3.05;2.72;;;;;;;10.98;48.77;98835.19;4902038;29;20037;-74
2021/05/07 13:48:10;;;;;;;3.75;2.30;;;;;;;10.95;49.83;98848.19;4901095;29;20047;-74
2021/05/07 13:50:35;;;;;;;4.35;2.65;;;;;;;10.60;49.17;98855.75;4903979;29;20045;-74
2021/05/07 13:53:01;;;;;;;4.70;2.72;;;;;;;10.34;49.78;98869.97;4907464;29;20386;-74
2021/05/07 13:55:26;;;;;;;3.47;2.45;;;;;;;10.25;49.82;98867.50;4906443;29;20039;-74
2021/05/07 13:57:51;;;;;;;6.60;2.60;;;;;;;10.18;49.13;98869.31;4909206;29;20028;-74
2021/05/07 14:00:17;;;;;;;3.50;2.22;;;;;;;9.98;49.98;98877.38;4908676;29;20189;-74
2021/05/07 14:02:42;;;;;;;8.65;2.47;;;;;;;10.07;50.42;98871.22;4907040;29;20040;-75
2021/05/07 14:05:09;;;;;;;3.97;2.70;;;;;;;10.22;52.98;98868.41;4904593;29;20032;-75
2021/05/07 14:07:35;;;;;;;6.55;2.38;;;;;;;10.48;52.70;98868.00;4907587;29;20039;-78
2021/05/07 14:10:02;;;;;;;7.93;2.70;;;;;;;11.38;50.39;98865.53;4903917;29;20032;-73
2021/05/07 14:12:28;;;;;;;3.42;2.95;;;;;;;11.43;48.33;98875.81;4907048;29;20115;-74
2021/05/07 14:14:54;;;;;;;7.50;2.58;;;;;;;12.08;48.04;98866.66;4905772;29;20028;-76
2021/05/07 14:17:19;;;;;;;5.82;2.97;;;;;;;12.35;46.92;98861.72;4904180;29;20163;-74
2021/05/07 14:19:44;;;;;;;2.15;1.95;;;;;;;12.47;47.29;98858.81;4905217;29;20034;-74
2021/05/07 14:22:10;;;;;;;3.15;2.50;;;;;;;12.97;46.56;98854.09;4906641;29;20028;-75
2021/05/07 14:24:35;;;;;;;3.33;2.20;;;;;;;12.53;46.40;98852.63;4907668;29;20028;-77
2021/05/07 14:27:01;;;;;;;3.65;2.30;;;;;;;13.16;45.23;98845.81;4902729;29;21332;-74
2021/05/07 14:29:26;;;;;;;3.33;2.80;;;;;;;13.20;45.08;98850.00;4904450;29;20036;-77
2021/05/07 14:31:52;;;;;;;5.57;3.00;;;;;;;13.24;45.71;98856.88;4902608;29;20028;-75
2021/05/07 14:34:18;;;;;;;5.20;2.50;;;;;;;12.98;43.21;98850.59;4907761;29;20039;-73
2021/05/07 14:36:43;;;;;;;4.20;2.20;;;;;;;12.69;41.95;98858.31;4908561;29;20479;-73
2021/05/07 14:39:09;;;;;;;3.28;2.17;;;;;;;12.84;43.78;98855.31;4907769;29;20043;-73
2021/05/07 14:41:34;;;;;;;2.42;1.80;;;;;;;13.12;43.71;98856.28;4903769;29;20036;-74
2021/05/07 14:43:59;;;;;;;4.65;2.20;;;;;;;13.27;42.95;98851.59;4909807;29;20044;-74
2021/05/07 14:46:25;;;;;;;4.55;2.28;;;;;;;13.35;43.43;98860.03;4909534;29;20031;-73
2021/05/07 14:48:50;;;;;;;4.50;1.98;;;;;;;13.77;42.82;98863.16;4905755;29;20036;-73
2021/05/07 14:51:16;;;;;;;7.65;2.75;;;;;;;13.55;41.55;98868.16;4909812;29;20032;-73
2021/05/07 14:53:41;;;;;;;3.40;2.10;;;;;;;12.76;41.29;98859.84;4909803;29;20091;-73
2021/05/07 14:56:07;;;;;;;5.13;2.13;;;;;;;12.85;41.76;98872.59;4903481;29;20474;-74
2021/05/07 14:58:34;;;;;;;3.20;2.05;;;;;;;12.91;41.74;98875.06;4907788;29;20106;-73
2021/05/07 15:00:59;;;;;;;4.30;1.75;;;;;;;12.63;43.96;98874.06;4903614;29;20032;-73
2021/05/07 15:03:24;;;;;;;9.70;2.15;;;;;;;12.47;44.98;98879.59;4902552;29;20534;-73
2021/05/07 15:05:52;;;;;;;3.65;1.80;;;;;;;12.49;43.89;98879.59;4903757;29;20027;-73
2021/05/07 15:08:20;;;;;;;2.65;1.95;;;;;;;12.74;43.75;98887.63;4908406;29;20043;-73
2021/05/07 15:10:46;;;;;;;3.45;1.98;;;;;;;13.71;43.75;98883.31;4904876;29;20038;-72
2021/05/07 15:13:11;;;;;;;4.57;2.20;;;;;;;13.74;41.37;98878.03;4905618;29;20028;-72
2021/05/07 15:15:37;;;;;;;6.57;2.00;;;;;;;12.66;43.39;98884.38;4906549;29;20032;-72
2021/05/07 15:18:02;;;;;;;8.07;2.10;;;;;;;12.33;43.85;98886.91;4905776;29;20028;-72
2021/05/07 15:20:27;;;;;;;3.42;2.35;;;;;;;13.45;42.16;98877.13;4905506;29;20054;-72
2021/05/07 15:22:52;;;;;;;3.10;1.70;;;;;;;13.81;39.95;98884.75;4907332;29;20111;-71
2021/05/07 15:25:18;;;;;;;2.50;1.67;;;;;;;12.00;42.96;98897.16;4908182;29;20401;-71
2021/05/07 15:27:44;;;;;;;2.92;1.58;;;;;;;11.99;43.77;98882.47;4908094;29;20043;-72
2021/05/07 15:30:10;;;;;;;7.60;1.80;;;;;;;12.64;41.27;98891.34;4907272;29;20063;-73
2021/05/07 15:32:35;;;;;;;4.03;1.80;;;;;;;12.65;39.97;98887.88;4902801;29;20058;-73
2021/05/07 15:35:01;;;;;;;4.35;1.80;;;;;;;13.26;38.51;98896.72;4901970;29;20036;-74
2021/05/07 15:37:27;;;;;;;2.08;1.70;;;;;;;12.29;39.49;98903.44;4902800;29;20383;-74
2021/05/07 15:39:52;;;;;;;6.88;2.10;;;;;;;12.18;41.00;98897.63;4908713;29;20052;-75
2021/05/07 15:42:18;;;;;;;5.45;1.88;;;;;;;12.79;40.81;98896.19;4885981;29;20111;-74
2021/05/07 15:44:43;;;;;;;2.08;1.55;;;;;;;12.44;40.50;98907.44;4901809;29;20794;-73
2021/05/07 15:47:09;;;;;;;2.28;1.67;;;;;;;12.81;41.82;98899.56;4902615;29;20036;-73
2021/05/07 15:49:39;;;;;;;3.38;1.38;;;;;;;12.82;40.83;98901.31;4902708;29;20107;-71